Time;durP1;ratioP1;P1;durP2;ratioP2;P2;SDS_P1;SDS_P2;PMS_P1;PMS_P2;Temp;Humidity;BMP_temperature;BMP_pressure;BME280_temperature;BME280_humidity;BME280_pressure;Samples;Min_cycle;Max_cycle;Signal;HPM_P1;HPM_P2
2022/11/25 00:01:31;;;;;;;9.73;2.90;;;;;;;7.45;100.00;100864.53;5051554;28;20369;-70
2022/11/25 00:03:57;;;;;;;15.48;3.92;;;;;;;7.45;100.00;100864.53;5051625;28;20025;-70
2022/11/25 00:06:24;;;;;;;10.65;2.70;;;;;;;7.48;100.00;100868.66;5050138;28;20037;-70
2022/11/25 00:08:53;;;;;;;12.95;2.42;;;;;;;7.50;100.00;100866.66;5051413;28;20403;-70
2022/11/25 00:11:19;;;;;;;14.80;5.10;;;;;;;7.51;100.00;100860.34;5050933;28;20608;-70
2022/11/25 00:13:46;;;;;;;11.98;2.92;;;;;;;7.53;100.00;100862.81;5050674;28;20029;-70
2022/11/25 00:16:15;;;;;;;8.43;2.92;;;;;;;7.54;100.00;100854.66;5050747;28;20048;-70
2022/11/25 00:18:44;;;;;;;18.65;6.38;;;;;;;7.55;100.00;100856.34;5049688;28;20032;-70
2022/11/25 00:21:12;;;;;;;8.00;3.08;;;;;;;7.53;100.00;100839.75;5051052;28;20031;-72
2022/11/25 00:23:38;;;;;;;12.30;3.35;;;;;;;7.59;100.00;100844.34;5051133;28;20621;-70
2022/11/25 00:26:12;;;;;;;16.55;3.42;;;;;;;7.61;100.00;100846.84;5051035;28;20040;-70
2022/11/25 00:28:39;;;;;;;14.05;4.45;;;;;;;7.58;100.00;100845.38;5049599;28;20029;-70
2022/11/25 00:31:08;;;;;;;11.85;2.53;;;;;;;7.61;100.00;100842.34;5051002;28;20083;-70
2022/11/25 00:33:34;;;;;;;13.02;2.90;;;;;;;7.65;100.00;100843.66;5050876;28;20072;-70
2022/11/25 00:36:03;;;;;;;9.13;2.75;;;;;;;7.59;100.00;100833.72;5050828;28;20543;-70
2022/11/25 00:38:29;;;;;;;14.30;3.30;;;;;;;7.63;100.00;100831.56;5051077;28;20071;-70
2022/11/25 00:44:34;;;;;;;15.52;3.05;;;;;;;7.69;100.00;100841.47;5050925;28;20064;-70
2022/11/25 00:46:24;;;;;;;19.23;3.90;;;;;;;7.69;100.00;100842.28;5051145;28;20082;-70
2022/11/25 00:48:50;;;;;;;8.98;3.60;;;;;;;7.68;100.00;100835.34;5050654;28;20032;-70
2022/11/25 00:51:15;;;;;;;13.25;3.90;;;;;;;7.75;100.00;100839.91;5052131;28;20033;-70
2022/11/25 00:53:40;;;;;;;17.02;4.53;;;;;;;7.78;100.00;100842.22;5051033;28;20480;-70
2022/11/25 00:56:11;;;;;;;8.60;2.28;;;;;;;7.81;100.00;100842.69;5050332;28;20366;-70
2022/11/25 00:58:38;;;;;;;13.38;3.72;;;;;;;7.86;100.00;100837.69;5033303;28;20055;-70
2022/11/25 01:01:03;;;;;;;10.77;2.53;;;;;;;7.89;100.00;100839.97;5050376;28;20075;-70
2022/11/25 01:03:29;;;;;;;10.30;3.13;;;;;;;7.94;100.00;100842.09;5049031;28;20428;-70
2022/11/25 01:05:54;;;;;;;7.95;2.42;;;;;;;7.96;100.00;100833.94;5050350;28;20412;-70
2022/11/25 01:08:19;;;;;;;11.32;3.28;;;;;;;8.00;100.00;100844.03;5050438;28;20035;-70
2022/11/25 01:10:44;;;;;;;11.88;4.00;;;;;;;8.04;100.00;100837.38;5050005;28;20472;-70
2022/11/25 01:13:10;;;;;;;15.98;2.65;;;;;;;8.10;100.00;100849.09;5048926;28;20562;-70
2022/11/25 01:15:36;;;;;;;20.33;3.42;;;;;;;8.13;100.00;100832.78;5050254;28;20079;-70
2022/11/25 01:18:01;;;;;;;13.50;2.08;;;;;;;8.22;100.00;100834.34;5050160;28;20091;-70
2022/11/25 01:20:27;;;;;;;6.10;2.30;;;;;;;8.28;100.00;100830.97;5048966;28;20033;-70
2022/11/25 01:22:52;;;;;;;10.05;2.88;;;;;;;8.34;100.00;100838.22;5049853;28;20463;-70
2022/11/25 01:25:17;;;;;;;9.55;2.13;;;;;;;8.39;100.00;100839.50;5048609;28;20194;-70
2022/11/25 01:27:43;;;;;;;18.15;2.92;;;;;;;8.41;100.00;100834.84;5049923;28;20029;-70
2022/11/25 01:30:09;;;;;;;13.43;4.07;;;;;;;8.41;100.00;100840.16;5049894;28;20037;-70
2022/11/25 01:32:34;;;;;;;10.63;2.15;;;;;;;8.41;100.00;100840.16;5049890;28;20063;-70
2022/11/25 01:34:59;;;;;;;20.33;4.03;;;;;;;8.41;100.00;100846.31;5049797;28;20477;-70
2022/11/25 01:37:25;;;;;;;17.45;4.13;;;;;;;8.40;100.00;100841.19;5048423;28;20037;-70
2022/11/25 01:39:50;;;;;;;9.50;2.97;;;;;;;8.45;100.00;100841.47;5048493;28;20033;-70
2022/11/25 01:42:16;;;;;;;8.45;2.28;;;;;;;8.45;100.00;100852.09;5049722;28;20059;-70
2022/11/25 01:44:42;;;;;;;10.45;2.28;;;;;;;8.49;100.00;100854.22;5048372;28;20088;-70
2022/11/25 01:47:23;;;;;;;13.98;2.97;;;;;;;8.51;100.00;100865.50;5049744;28;20041;-70
2022/11/25 01:50:08;;;;;;;8.87;2.83;;;;;;;8.56;100.00;100867.56;5048207;28;20029;-70
2022/11/25 01:52:42;;;;;;;9.82;2.13;;;;;;;8.54;100.00;100856.28;5049385;28;20282;-70
2022/11/25 01:55:09;;;;;;;10.15;2.08;;;;;;;8.60;100.00;100865.41;5049560;28;20602;-70
2022/11/25 01:57:42;;;;;;;14.60;3.35;;;;;;;8.63;100.00;100871.16;5049525;28;20048;-70
2022/11/25 02:00:09;;;;;;;11.38;2.33;;;;;;;8.64;100.00;100875.47;5049131;28;20531;-70
2022/11/25 02:02:35;;;;;;;15.98;3.10;;;;;;;8.62;100.00;100866.88;5049414;28;20057;-70
2022/11/25 02:05:05;;;;;;;14.45;3.45;;;;;;;8.64;100.00;100854.19;5049480;28;20498;-70
2022/11/25 02:07:35;;;;;;;10.48;3.22;;;;;;;8.72;100.00;100877.19;5047531;28;20602;-71
2022/11/25 02:10:07;;;;;;;14.95;3.17;;;;;;;8.75;100.00;100888.31;5049349;28;20541;-70
2022/11/25 02:12:34;;;;;;;12.40;2.47;;;;;;;8.81;100.00;100889.41;5049018;28;20044;-70
2022/11/25 02:15:00;;;;;;;7.85;2.00;;;;;;;8.84;100.00;100883.72;5048736;28;20124;-70
2022/11/25 02:17:25;;;;;;;8.68;3.25;;;;;;;8.88;100.00;100886.81;5048505;28;20112;-70
2022/11/25 02:19:59;;;;;;;13.27;3.38;;;;;;;8.88;100.00;100890.34;5049046;28;20465;-70
2022/11/25 02:22:53;;;;;;;10.30;2.72;;;;;;;8.97;100.00;100891.88;5049156;28;20075;-70
2022/11/25 02:25:21;;;;;;;14.25;2.30;;;;;;;9.01;100.00;100902.94;5049308;28;20025;-70
2022/11/25 02:27:50;;;;;;;7.38;1.77;;;;;;;9.01;100.00;100902.94;5047967;28;20144;-70
2022/11/25 02:30:16;;;;;;;9.30;2.58;;;;;;;9.03;100.00;100898.28;5049194;28;20109;-70
2022/11/25 02:32:43;;;;;;;10.95;4.28;;;;;;;9.05;100.00;100896.25;5049256;28;20119;-72
2022/11/25 02:35:33;;;;;;;7.53;2.28;;;;;;;9.05;100.00;100908.75;5049150;28;20460;-70
2022/11/25 02:38:01;;;;;;;8.95;2.20;;;;;;;9.06;100.00;100903.22;5049218;28;20048;-71
2022/11/25 02:40:28;;;;;;;8.63;1.80;;;;;;;9.06;100.00;100905.06;5049154;28;20028;-71
2022/11/25 02:42:55;;;;;;;7.65;2.50;;;;;;;9.02;100.00;100901.13;5049052;28;20117;-70
2022/11/25 02:45:30;;;;;;;9.00;2.97;;;;;;;9.05;100.00;100906.91;5049073;28;20061;-71
2022/11/25 02:47:55;;;;;;;11.43;2.20;;;;;;;9.03;100.00;100916.09;5049155;28;20366;-70
2022/11/25 02:50:21;;;;;;;4.60;2.55;;;;;;;9.00;100.00;100912.78;5049001;28;20107;-71
2022/11/25 02:52:46;;;;;;;10.10;3.42;;;;;;;8.94;100.00;100923.34;5049023;28;20531;-71
2022/11/25 02:55:11;;;;;;;8.13;2.20;;;;;;;8.92;100.00;100917.38;5048991;28;20037;-71
2022/11/25 02:57:37;;;;;;;6.07;2.25;;;;;;;8.88;100.00;100916.06;5049048;28;20103;-70
2022/11/25 03:00:04;;;;;;;4.50;1.90;;;;;;;8.83;100.00;100918.47;5049072;28;20484;-70
2022/11/25 03:02:29;;;;;;;9.93;2.40;;;;;;;8.80;100.00;100922.31;5031242;28;20400;-70
2022/11/25 03:04:54;;;;;;;10.90;3.10;;;;;;;8.77;100.00;100926.16;5048821;28;20033;-70
2022/11/25 03:07:20;;;;;;;10.05;2.47;;;;;;;8.74;100.00;100925.72;5048361;28;20418;-71
2022/11/25 03:09:45;;;;;;;7.43;2.63;;;;;;;8.72;100.00;100927.72;5047459;28;20460;-70
2022/11/25 03:12:20;;;;;;;7.38;1.92;;;;;;;8.68;100.00;100921.97;5047366;28;20057;-70
2022/11/25 03:14:46;;;;;;;10.43;2.08;;;;;;;8.64;100.00;100922.50;5047289;28;20033;-70
2022/11/25 03:17:11;;;;;;;13.77;2.95;;;;;;;8.61;100.00;100885.66;5048423;28;20025;-70
2022/11/25 03:19:37;;;;;;;10.63;2.88;;;;;;;8.59;100.00;100839.81;5050042;28;20036;-70
2022/11/25 03:22:03;;;;;;;9.65;2.70;;;;;;;8.54;100.00;100838.53;5051892;28;20037;-70
2022/11/25 03:24:29;;;;;;;6.13;1.73;;;;;;;8.55;100.00;100842.84;5052411;28;20033;-70
2022/11/25 03:26:54;;;;;;;9.25;2.42;;;;;;;8.52;100.00;100847.69;5052200;28;20048;-70
2022/11/25 03:29:19;;;;;;;9.95;1.95;;;;;;;8.49;100.00;100867.50;5052199;28;20029;-70
2022/11/25 03:31:45;;;;;;;9.75;2.10;;;;;;;8.41;100.00;100874.72;5052157;28;20373;-70
2022/11/25 03:34:11;;;;;;;10.25;2.28;;;;;;;8.45;100.00;100889.31;5052060;28;20036;-70
2022/11/25 03:36:36;;;;;;;8.60;1.92;;;;;;;8.40;100.00;100887.19;5052060;28;20140;-70
2022/11/25 03:39:03;;;;;;;10.90;3.60;;;;;;;8.39;100.00;100885.53;5050762;28;20051;-70
2022/11/25 03:41:28;;;;;;;12.68;3.08;;;;;;;8.35;100.00;100879.72;5051788;28;20029;-70
2022/11/25 03:43:54;;;;;;;6.30;1.50;;;;;;;8.38;100.00;100885.69;5051896;28;20025;-70
2022/11/25 03:46:19;;;;;;;9.02;2.00;;;;;;;8.31;100.00;100902.34;5052001;28;20024;-70
2022/11/25 03:48:45;;;;;;;7.45;1.80;;;;;;;8.33;100.00;100913.63;5051746;28;20035;-70
2022/11/25 03:51:10;;;;;;;12.88;2.53;;;;;;;8.30;100.00;100918.47;5051753;28;20021;-70
2022/11/25 03:53:35;;;;;;;10.05;1.92;;;;;;;8.27;100.00;100917.00;5051765;28;20060;-70
2022/11/25 03:56:01;;;;;;;12.25;3.05;;;;;;;8.24;100.00;100917.34;5051771;28;20431;-70
2022/11/25 03:58:26;;;;;;;5.95;2.55;;;;;;;8.24;100.00;100932.47;5051768;28;20426;-70
2022/11/25 04:00:51;;;;;;;6.45;1.85;;;;;;;8.21;100.00;100932.84;5051712;28;20441;-70
2022/11/25 04:03:17;;;;;;;7.90;1.95;;;;;;;8.18;100.00;100927.88;5051567;28;20033;-70
2022/11/25 04:05:42;;;;;;;7.38;1.63;;;;;;;8.19;100.00;100929.53;5051453;28;20036;-70
2022/11/25 04:08:08;;;;;;;4.22;1.60;;;;;;;8.17;100.00;100926.22;5051388;28;20032;-70
2022/11/25 04:10:33;;;;;;;4.90;2.22;;;;;;;8.16;100.00;100930.72;5051509;28;20486;-70
2022/11/25 04:12:58;;;;;;;8.45;2.13;;;;;;;8.10;100.00;100931.44;5051168;28;20049;-70
2022/11/25 04:15:24;;;;;;;10.23;2.15;;;;;;;8.10;100.00;100928.78;5049164;28;20039;-71
2022/11/25 04:17:49;;;;;;;5.32;1.77;;;;;;;8.09;100.00;100946.53;5048945;28;20411;-70
2022/11/25 04:20:15;;;;;;;7.22;1.73;;;;;;;8.09;100.00;100940.38;5051174;28;20021;-70
2022/11/25 04:22:40;;;;;;;10.90;1.83;;;;;;;8.08;100.00;100946.72;5050474;28;20043;-71
2022/11/25 04:25:06;;;;;;;6.28;1.30;;;;;;;8.04;100.00;100953.38;5051187;28;20484;-70
2022/11/25 04:27:32;;;;;;;3.17;1.73;;;;;;;8.03;100.00;100963.19;5049773;28;20040;-70
2022/11/25 04:29:57;;;;;;;7.28;1.80;;;;;;;7.99;100.00;100953.94;5050696;28;20570;-70
2022/11/25 04:32:23;;;;;;;8.73;1.55;;;;;;;8.00;100.00;100963.53;5050933;28;20020;-70
2022/11/25 04:34:48;;;;;;;5.40;1.50;;;;;;;7.98;100.00;100967.38;5050812;28;20036;-70
2022/11/25 04:37:14;;;;;;;5.20;1.95;;;;;;;7.97;100.00;100977.19;5050827;28;20036;-70
2022/11/25 04:39:39;;;;;;;7.95;1.30;;;;;;;7.91;100.00;100975.22;5050874;28;20029;-70
2022/11/25 04:44:49;;;;;;;10.43;1.35;;;;;;;7.95;100.00;100988.97;5050793;28;20602;-70
2022/11/25 04:47:15;;;;;;;8.20;1.60;;;;;;;7.95;100.00;100994.28;5050683;28;20041;-70
2022/11/25 04:49:40;;;;;;;1.58;1.38;;;;;;;7.92;100.00;100999.97;5049365;28;20025;-70
2022/11/25 04:52:05;;;;;;;8.95;1.25;;;;;;;7.89;100.00;100999.31;5050781;28;20444;-70
2022/11/25 04:54:31;;;;;;;6.32;2.97;;;;;;;7.88;100.00;100999.47;5049135;28;20036;-70
2022/11/25 04:56:56;;;;;;;3.45;1.13;;;;;;;7.87;100.00;101006.59;5050446;28;20028;-70
2022/11/25 04:59:40;;;;;;;5.78;1.40;;;;;;;7.84;100.00;101009.63;5050581;28;20090;-70
2022/11/25 05:02:16;;;;;;;4.43;1.13;;;;;;;7.81;100.00;101003.84;5049016;28;20039;-70
2022/11/25 05:04:43;;;;;;;2.58;1.15;;;;;;;7.80;100.00;101012.78;5050138;28;20036;-70
2022/11/25 05:07:09;;;;;;;2.45;1.20;;;;;;;7.71;100.00;101005.88;5050427;28;20123;-70
2022/11/25 05:09:35;;;;;;;5.70;1.42;;;;;;;7.73;100.00;101011.81;5050338;28;20060;-70
2022/11/25 05:12:00;;;;;;;2.70;1.00;;;;;;;7.67;100.00;101003.56;5050064;28;20052;-70
2022/11/25 05:14:25;;;;;;;2.78;1.25;;;;;;;7.71;100.00;101016.50;5050050;28;20113;-70
2022/11/25 05:16:51;;;;;;;6.03;1.98;;;;;;;7.68;100.00;101009.72;5049811;28;20055;-70
2022/11/25 05:19:17;;;;;;;10.98;2.03;;;;;;;7.65;100.00;101016.19;5049801;28;20106;-70
2022/11/25 05:21:42;;;;;;;8.65;1.40;;;;;;;7.63;100.00;101020.03;5050088;28;20034;-70
2022/11/25 05:24:08;;;;;;;5.57;1.50;;;;;;;7.60;100.00;101028.34;5049041;28;20028;-70
2022/11/25 05:26:34;;;;;;;11.15;2.47;;;;;;;7.58;100.00;101028.50;5050022;28;20048;-72
2022/11/25 05:28:59;;;;;;;4.05;1.30;;;;;;;7.59;100.00;101031.97;5048646;28;20044;-70
2022/11/25 05:31:25;;;;;;;4.20;1.52;;;;;;;7.52;100.00;101029.19;5049946;28;20480;-70
2022/11/25 05:33:50;;;;;;;7.70;1.67;;;;;;;7.50;100.00;101023.22;5049942;28;20036;-70
2022/11/25 05:36:15;;;;;;;4.50;1.60;;;;;;;7.46;100.00;101019.25;5049811;28;20029;-70
2022/11/25 05:38:41;;;;;;;1.92;1.50;;;;;;;7.41;100.00;101025.09;5049754;28;20037;-72
2022/11/25 05:41:07;;;;;;;3.65;1.25;;;;;;;7.36;100.00;101026.59;5049046;28;20459;-70
2022/11/25 05:43:33;;;;;;;9.15;1.65;;;;;;;7.29;100.00;101031.75;5048732;28;20029;-70
2022/11/25 05:46:02;;;;;;;5.53;1.90;;;;;;;7.23;100.00;101027.97;5049585;28;20029;-70
2022/11/25 05:48:27;;;;;;;4.65;1.55;;;;;;;7.21;100.00;101032.59;5049630;28;20142;-70
2022/11/25 05:50:53;;;;;;;1.95;1.10;;;;;;;7.18;100.00;101032.97;5049440;28;20120;-70
2022/11/25 05:53:18;;;;;;;8.65;1.98;;;;;;;7.14;100.00;101038.75;5031809;28;20127;-70
2022/11/25 05:55:44;;;;;;;2.83;1.20;;;;;;;7.10;100.00;101046.25;5049494;28;20025;-72
2022/11/25 05:58:09;;;;;;;7.40;1.58;;;;;;;7.03;100.00;101032.81;5049336;28;20045;-70
2022/11/25 06:00:34;;;;;;;3.22;1.30;;;;;;;7.03;100.00;101043.41;5048118;28;20039;-70
2022/11/25 06:03:00;;;;;;;3.92;2.15;;;;;;;6.94;100.00;101035.63;5049497;28;20116;-70
2022/11/25 06:05:25;;;;;;;3.30;1.77;;;;;;;6.96;100.00;101044.25;5049759;28;20422;-70
2022/11/25 06:07:51;;;;;;;4.30;1.50;;;;;;;6.91;100.00;101054.53;5049460;28;20095;-70
2022/11/25 06:10:17;;;;;;;6.38;2.20;;;;;;;6.87;100.00;101050.59;5049442;28;20056;-70
2022/11/25 06:12:43;;;;;;;3.55;1.38;;;;;;;6.88;100.00;101068.97;5049203;28;20053;-70
2022/11/25 06:15:09;;;;;;;6.32;2.42;;;;;;;6.86;100.00;101070.13;5049405;28;20605;-70
2022/11/25 06:17:35;;;;;;;5.10;1.73;;;;;;;6.81;100.00;101062.66;5049181;28;20064;-70
2022/11/25 06:20:00;;;;;;;3.15;1.85;;;;;;;6.82;100.00;101066.97;5048794;28;20110;-70
2022/11/25 06:22:25;;;;;;;9.82;2.22;;;;;;;6.79;100.00;101054.06;5047736;28;20060;-70
2022/11/25 06:24:51;;;;;;;8.07;2.00;;;;;;;6.76;100.00;101057.88;5048786;28;20036;-70
2022/11/25 06:27:16;;;;;;;2.95;1.30;;;;;;;6.73;100.00;101068.81;5048819;28;20523;-70
2022/11/25 06:29:41;;;;;;;4.30;1.70;;;;;;;6.71;100.00;101072.63;5049221;28;20464;-71
2022/11/25 06:32:07;;;;;;;6.22;3.20;;;;;;;6.72;100.00;101079.56;5049258;28;20463;-70
2022/11/25 06:34:32;;;;;;;6.05;2.53;;;;;;;6.65;100.00;101076.75;5049008;28;20025;-70
2022/11/25 06:36:58;;;;;;;5.35;1.85;;;;;;;6.66;100.00;101085.56;5049073;28;20094;-70
2022/11/25 06:39:23;;;;;;;6.30;1.80;;;;;;;6.63;100.00;101085.84;5049049;28;20033;-70
2022/11/25 06:41:48;;;;;;;16.23;5.20;;;;;;;6.65;100.00;101084.69;5049181;28;20032;-70
2022/11/25 06:44:14;;;;;;;5.32;1.98;;;;;;;6.66;100.00;101094.31;5047230;28;20032;-70
2022/11/25 06:46:39;;;;;;;6.40;1.75;;;;;;;6.66;100.00;101104.09;5049167;28;20021;-70
2022/11/25 06:49:06;;;;;;;4.00;1.85;;;;;;;6.69;100.00;101107.25;5031533;28;20076;-70
2022/11/25 06:51:31;;;;;;;5.18;2.03;;;;;;;6.66;100.00;101098.81;5047734;28;20106;-70
2022/11/25 06:53:56;;;;;;;8.20;1.88;;;;;;;6.68;100.00;101107.38;5051633;28;20087;-70
2022/11/25 06:56:24;;;;;;;5.20;1.67;;;;;;;6.61;100.00;101101.13;5052934;28;20120;-70
2022/11/25 06:58:51;;;;;;;6.30;2.03;;;;;;;6.66;100.00;101112.88;5052744;28;20047;-70
2022/11/25 07:01:19;;;;;;;4.30;1.67;;;;;;;6.59;100.00;101104.75;5052163;28;20539;-70
2022/11/25 07:03:46;;;;;;;6.18;1.90;;;;;;;6.60;100.00;101113.50;5052616;28;20358;-70
2022/11/25 07:06:13;;;;;;;6.85;2.47;;;;;;;6.54;100.00;101111.53;5052616;28;20039;-70
2022/11/25 07:08:39;;;;;;;4.80;1.70;;;;;;;6.57;100.00;101121.78;5052889;28;20052;-70
2022/11/25 07:11:16;;;;;;;6.40;2.10;;;;;;;6.54;100.00;101122.94;5050992;28;20065;-71
2022/11/25 07:13:42;;;;;;;10.82;2.95;;;;;;;6.54;100.00;101130.06;5052651;28;20037;-71
2022/11/25 07:16:07;;;;;;;7.38;2.30;;;;;;;6.53;100.00;101144.31;5052495;28;20499;-71
2022/11/25 07:18:35;;;;;;;8.73;3.53;;;;;;;6.47;100.00;101137.00;5052394;28;20056;-71
2022/11/25 07:21:11;;;;;;;4.95;2.05;;;;;;;6.51;100.00;101148.94;5051784;28;20027;-71
2022/11/25 07:23:37;;;;;;;4.80;2.00;;;;;;;6.47;100.00;101150.25;5051858;28;20060;-70
2022/11/25 07:26:29;;;;;;;16.55;2.97;;;;;;;6.46;100.00;101154.72;5052209;28;20502;-71
2022/11/25 07:28:59;;;;;;;7.07;2.30;;;;;;;6.45;100.00;101152.25;5050689;28;20899;-70
2022/11/25 07:31:27;;;;;;;6.95;2.13;;;;;;;6.41;100.00;101153.56;5052202;28;20071;-70
2022/11/25 07:33:54;;;;;;;11.80;3.80;;;;;;;6.43;100.00;101167.50;5052139;28;20025;-70
2022/11/25 07:36:20;;;;;;;9.45;4.05;;;;;;;6.42;100.00;101169.31;5051979;28;20086;-71
2022/11/25 07:38:46;;;;;;;7.93;2.70;;;;;;;6.43;100.00;101173.59;5052191;28;20047;-71
2022/11/25 07:41:14;;;;;;;5.05;2.28;;;;;;;6.44;100.00;101177.91;5051962;28;20032;-71
2022/11/25 07:43:43;;;;;;;10.90;2.53;;;;;;;6.44;100.00;101188.50;5051990;28;20112;-70
2022/11/25 07:46:11;;;;;;;8.25;2.53;;;;;;;6.48;100.00;101189.03;5050343;28;20040;-71
2022/11/25 07:48:36;;;;;;;9.10;2.33;;;;;;;6.47;100.00;101190.84;5051709;28;20028;-71
2022/11/25 07:51:02;;;;;;;5.57;2.33;;;;;;;6.47;100.00;101190.00;5051552;28;20055;-71
2022/11/25 07:53:27;;;;;;;10.68;3.70;;;;;;;6.44;100.00;101190.31;5049512;28;20032;-71
2022/11/25 07:55:53;;;;;;;11.98;3.17;;;;;;;6.54;100.00;101209.56;5051478;28;20091;-71
2022/11/25 07:58:18;;;;;;;6.28;2.83;;;;;;;6.55;100.00;101214.72;5051719;28;20041;-70
2022/11/25 08:00:43;;;;;;;12.25;2.65;;;;;;;6.57;100.00;101210.06;5051846;28;20510;-70
2022/11/25 08:03:09;;;;;;;8.30;2.22;;;;;;;6.66;100.00;101216.25;5051249;28;20130;-69
2022/11/25 08:05:34;;;;;;;10.82;3.60;;;;;;;6.71;100.00;101216.59;5050753;28;20472;-70
2022/11/25 08:07:59;;;;;;;12.02;2.78;;;;;;;6.75;100.00;101225.03;5051468;28;20518;-70
2022/11/25 08:10:25;;;;;;;12.98;3.25;;;;;;;6.76;100.00;101224.06;5051392;28;20059;-70
2022/11/25 08:12:50;;;;;;;10.73;2.95;;;;;;;6.73;100.00;101217.25;5051043;28;20040;-70
2022/11/25 08:15:15;;;;;;;7.55;2.55;;;;;;;6.78;100.00;101225.53;5049916;28;20056;-70
2022/11/25 08:17:41;;;;;;;8.15;2.53;;;;;;;6.82;100.00;101235.81;5050627;28;20074;-68
2022/11/25 08:20:07;;;;;;;7.13;2.88;;;;;;;6.82;100.00;101236.66;5051029;28;20167;-71
2022/11/25 08:22:32;;;;;;;16.50;3.60;;;;;;;6.87;100.00;101246.78;5050562;28;20025;-71
2022/11/25 08:24:57;;;;;;;9.48;3.22;;;;;;;6.93;100.00;101243.47;5051291;28;20475;-71
2022/11/25 08:27:23;;;;;;;11.02;3.33;;;;;;;6.95;100.00;101244.13;5033140;28;20044;-71
2022/11/25 08:29:48;;;;;;;12.52;2.90;;;;;;;7.02;100.00;101251.28;5048997;28;20025;-71
2022/11/25 08:32:13;;;;;;;6.68;2.63;;;;;;;7.07;100.00;101249.94;5047271;28;20484;-71
2022/11/25 08:34:39;;;;;;;7.65;3.15;;;;;;;7.16;100.00;101254.28;5044922;28;20396;-70
2022/11/25 08:37:04;;;;;;;12.10;3.03;;;;;;;7.23;100.00;101255.25;5044686;28;20071;-70
2022/11/25 08:39:29;;;;;;;7.03;2.80;;;;;;;7.27;100.00;101245.97;5044971;28;20037;-71
2022/11/25 08:41:55;;;;;;;8.48;3.10;;;;;;;7.32;100.00;101251.63;5044902;28;20116;-72
2022/11/25 08:44:21;;;;;;;8.88;2.97;;;;;;;7.34;100.00;101247.00;5044355;28;21377;-71
2022/11/25 08:46:46;;;;;;;9.63;3.03;;;;;;;7.47;100.00;101257.94;5044653;28;20124;-70
2022/11/25 08:49:13;;;;;;;8.35;2.78;;;;;;;7.54;100.00;101265.22;5044767;28;20033;-71
2022/11/25 08:51:39;;;;;;;10.93;3.90;;;;;;;7.58;100.00;101258.59;5044057;28;20036;-71
2022/11/25 08:54:06;;;;;;;9.55;3.28;;;;;;;7.58;100.00;101256.75;5044132;28;20086;-71
2022/11/25 08:56:31;;;;;;;9.27;2.65;;;;;;;7.67;100.00;101260.22;5044795;28;20052;-71
2022/11/25 08:58:58;;;;;;;7.80;2.88;;;;;;;7.69;100.00;101259.06;5044835;28;20028;-71
2022/11/25 09:01:24;;;;;;;6.72;3.55;;;;;;;7.75;100.00;101264.72;5044444;28;20071;-71
2022/11/25 09:03:53;;;;;;;14.57;3.75;;;;;;;7.84;100.00;101272.50;5043607;28;20468;-70
2022/11/25 09:06:18;;;;;;;6.70;2.80;;;;;;;7.88;100.00;101273.81;5044006;28;20056;-71
2022/11/25 09:08:44;;;;;;;9.90;3.10;;;;;;;7.94;100.00;101282.94;5042440;28;20037;-70
2022/11/25 09:11:10;;;;;;;7.70;3.63;;;;;;;8.00;100.00;101289.41;5042795;28;20076;-70
2022/11/25 09:13:36;;;;;;;13.00;3.90;;;;;;;8.06;100.00;101291.38;5043713;28;20036;-72
2022/11/25 09:16:02;;;;;;;7.00;2.20;;;;;;;8.11;100.00;101291.72;5043809;28;20055;-69
2022/11/25 09:18:29;;;;;;;14.27;3.30;;;;;;;8.12;100.00;101299.53;5044420;28;20036;-68
2022/11/25 09:20:55;;;;;;;13.27;3.65;;;;;;;8.18;100.00;101299.84;5044090;28;20024;-70
2022/11/25 09:23:22;;;;;;;6.53;2.85;;;;;;;8.23;100.00;101293.00;5042962;28;20036;-69
2022/11/25 09:25:55;;;;;;;6.00;3.05;;;;;;;8.30;100.00;101304.59;5044336;28;20028;-71
2022/11/25 09:28:21;;;;;;;8.75;2.97;;;;;;;8.33;100.00;101306.94;5047029;28;20507;-71
2022/11/25 09:30:47;;;;;;;6.82;2.75;;;;;;;8.34;100.00;101305.94;5049625;28;20039;-72
2022/11/25 09:33:13;;;;;;;6.82;2.60;;;;;;;8.41;100.00;101308.78;5049605;28;20425;-72
2022/11/25 09:35:38;;;;;;;11.88;3.55;;;;;;;8.49;100.00;101326.53;5048346;28;20127;-72
2022/11/25 09:38:03;;;;;;;8.88;2.83;;;;;;;8.51;100.00;101327.16;5049714;28;20029;-71
2022/11/25 09:40:35;;;;;;;9.70;3.30;;;;;;;8.58;100.00;101329.97;5049634;28;20124;-72
2022/11/25 09:49:18;;;;;;;12.75;3.72;;;;;;;8.70;100.00;101355.22;5067204;28;20503;-72
2022/11/25 09:52:22;;;;;;;5.55;2.67;;;;;;;8.75;100.00;101352.84;5067049;28;20063;-71
2022/11/25 09:54:59;;;;;;;6.20;2.65;;;;;;;8.76;100.00;101357.16;5046444;28;20052;-71
2022/11/25 09:57:33;;;;;;;10.02;3.20;;;;;;;8.78;100.00;101363.97;5049668;28;20033;-72
2022/11/25 10:00:18;;;;;;;10.00;3.25;;;;;;;8.83;100.00;101360.81;5048176;28;20032;-71
2022/11/25 10:02:55;;;;;;;5.50;2.40;;;;;;;8.90;100.00;101360.94;5049494;28;20393;-72
2022/11/25 10:05:26;;;;;;;11.48;3.55;;;;;;;8.92;100.00;101365.06;5049487;28;20082;-72
2022/11/25 10:07:54;;;;;;;5.28;2.97;;;;;;;8.90;100.00;101358.25;5049562;28;20036;-71
2022/11/25 10:10:51;;;;;;;8.52;2.92;;;;;;;9.03;100.00;101373.69;5049345;28;20079;-72
2022/11/25 10:13:27;;;;;;;9.90;3.13;;;;;;;9.03;100.00;101373.69;5048831;28;20041;-71
2022/11/25 10:15:56;;;;;;;7.40;4.18;;;;;;;9.08;100.00;101374.81;5048974;28;20111;-72
2022/11/25 10:18:42;;;;;;;10.63;4.05;;;;;;;9.11;100.00;101378.97;5048588;28;20484;-72
2022/11/25 10:21:10;;;;;;;11.40;3.85;;;;;;;9.14;100.00;101381.25;5048670;28;20587;-71
2022/11/25 10:23:38;;;;;;;6.07;2.65;;;;;;;9.20;100.00;101389.41;5048705;28;20247;-71
2022/11/25 10:26:14;;;;;;;10.38;4.25;;;;;;;9.28;100.00;101399.16;5049077;28;20025;-72
2022/11/25 10:28:45;;;;;;;12.43;3.92;;;;;;;9.32;100.00;101397.81;5051975;28;20135;-71
2022/11/25 10:31:27;;;;;;;9.65;3.50;;;;;;;9.37;100.00;101398.09;5053167;28;20376;-71
2022/11/25 10:33:57;;;;;;;8.80;3.53;;;;;;;9.40;100.00;101402.25;5051095;28;20123;-71
2022/11/25 10:36:32;;;;;;;5.10;3.53;;;;;;;9.50;100.00;101416.19;5053236;28;20104;-71
2022/11/25 10:39:04;;;;;;;9.13;2.75;;;;;;;9.53;100.00;101409.66;5053065;28;20476;-72
2022/11/25 10:41:42;;;;;;;10.32;2.60;;;;;;;9.58;100.00;101415.28;5053128;28;20029;-72
2022/11/25 10:44:27;;;;;;;8.82;2.50;;;;;;;9.59;100.00;101424.97;5051790;28;20017;-72
2022/11/25 10:47:23;;;;;;;6.70;2.40;;;;;;;9.65;100.00;101422.41;5053115;28;20035;-72
2022/11/25 10:50:12;;;;;;;9.18;3.47;;;;;;;9.71;100.00;101422.72;5052994;28;20021;-72
2022/11/25 10:52:47;;;;;;;14.05;3.08;;;;;;;9.76;100.00;101425.66;5052879;28;21025;-71
2022/11/25 10:55:17;;;;;;;11.45;3.53;;;;;;;9.77;100.00;101417.53;5052379;28;20075;-72
2022/11/25 10:57:43;;;;;;;6.88;2.78;;;;;;;9.84;100.00;101421.09;5052807;28;20041;-72
2022/11/25 11:00:26;;;;;;;8.88;2.95;;;;;;;9.92;100.00;101430.88;5052834;28;20103;-72
2022/11/25 11:02:53;;;;;;;7.70;3.00;;;;;;;9.94;100.00;101431.53;5051506;28;20048;-72
2022/11/25 11:05:23;;;;;;;8.65;3.13;;;;;;;9.97;100.00;101431.16;5052744;28;20029;-72
2022/11/25 11:08:08;;;;;;;13.18;2.67;;;;;;;9.97;100.00;101433.00;5051326;28;20396;-72
2022/11/25 11:10:34;;;;;;;7.22;2.85;;;;;;;10.01;100.00;101432.50;5052520;28;20037;-72
2022/11/25 11:13:20;;;;;;;5.32;2.97;;;;;;;10.05;100.00;101433.78;5051939;28;20110;-72
2022/11/25 11:15:46;;;;;;;9.35;2.80;;;;;;;10.09;100.00;101442.25;5052487;28;20507;-72
2022/11/25 11:18:26;;;;;;;6.15;2.60;;;;;;;10.16;100.00;101447.69;5052427;28;20053;-72
2022/11/25 11:20:57;;;;;;;5.95;2.30;;;;;;;10.19;100.00;101448.16;5052440;28;20116;-71
2022/11/25 11:23:23;;;;;;;8.30;2.63;;;;;;;10.24;100.00;101455.63;5052192;28;20017;-72
2022/11/25 11:26:05;;;;;;;7.20;2.30;;;;;;;10.23;100.00;101449.47;5051741;28;20124;-72
2022/11/25 11:28:34;;;;;;;13.65;4.90;;;;;;;10.26;100.00;101464.25;5052302;28;20017;-72
2022/11/25 11:31:05;;;;;;;6.65;2.42;;;;;;;10.27;100.00;101465.91;5052106;28;20029;-72
2022/11/25 11:33:35;;;;;;;9.32;2.13;;;;;;;10.24;100.00;101464.47;5052054;28;20021;-72
2022/11/25 11:36:14;;;;;;;11.05;3.10;;;;;;;10.33;100.00;101473.25;5051416;28;20054;-71
2022/11/25 11:39:12;;;;;;;8.15;2.10;;;;;;;10.30;100.00;101466.44;5051774;28;20033;-72